TAF Text Data
IDs:
Format:
Raw Decoded Include METAR

Data at: 0615 UTC 15 Nov 2018

Region: TOP
KATL 150536Z 1506/1612 08017KT 5SM RA BR FEW008 BKN030 OVC090
  FM151000 06005KT 3SM -RA OVC005
  FM151400 35004KT P6SM OVC006
  FM151800 27009KT P6SM OVC015
  FM152100 28013KT P6SM BKN018
  FM160200 28013KT P6SM SCT025
  FM160500 30011KT P6SM SCT150


KBOS 150534Z 1506/1612 33008KT P6SM SCT250
  FM151700 13004KT P6SM BKN200
  FM152100 10006KT P6SM VCSH OVC060
  FM152300 10007KT P6SM -SN OVC040
  FM160100 10011G19KT 4SM -SNPL OVC020
  FM160300 10012G21KT 2SM -SNPL BR OVC010
  FM160600 08017G33KT 3SM -RAPL BR OVC008
  FM160700 08018G34KT 3SM -RA BR OVC008


KBWI 150614Z 1506/1612 06006KT P6SM SCT150 BKN250
  FM151300 06008KT 6SM -FZRASNPL SCT025 OVC040
  FM151500 06011G21KT 1 1/2SM -FZRAPLSN BKN008 OVC025
  FM151800 06013G23KT 1/2SM -FZRA BKN003 OVC025
  FM152100 05014G26KT 1 1/2SM -RA BKN003 OVC025
  FM160400 03009KT 2SM -RA BKN003 OVC025
  FM160900 30015G26KT P6SM SCT025 OVC035


KCLE 150536Z 1506/1612 08007KT P6SM OVC250
  FM151000 12010KT P6SM SCT025 OVC080
  FM151200 12008KT 5SM -SN OVC025
  TEMPO 1514/1516 3SM -FZRASNPL BKN012
  FM151600 11007KT 2SM -FZRASNPL OVC008
  FM152100 11007KT 4SM -RASN OVC008
  FM160200 14005KT 5SM -SHSN OVC008


KCLT 150540Z 1506/1612 05013KT 6SM -RA SCT012 OVC030
  FM150900 04015G23KT 3SM RA BR SCT011 OVC018
  TEMPO 1509/1513 2SM +RA BR OVC008
  FM151400 01011KT 3SM -RA BR OVC009
  FM151700 01009KT 6SM -RA BR OVC009
  FM160000 26004KT P6SM BKN007 OVC011
  FM160400 29008G17KT P6SM SCT012
  FM160800 29007KT P6SM FEW250


KCVG 150542Z 1506/1612 05013G20KT 4SM FZRA BR SCT050 OVC070
  FM150800 08012KT 4SM -FZRA BR OVC025
  FM151100 09010KT 5SM -RA BR OVC008
  FM151800 VRB03KT P6SM -RA OVC006
  TEMPO 1520/1522 2SM -RASN BR OVC004
  FM152200 25005KT 4SM -SNRA BR OVC005
  FM160000 25008KT 5SM BR VCSH SCT004 OVC010


KDCA 150614Z 1506/1612 06007KT P6SM SCT140 OVC250
  FM151100 05008KT 3SM -RASNPL SCT025 OVC050
  FM151500 05011G19KT 1/2SM -RAPL BKN008 OVC025
  FM151800 05012G21KT 1 1/2SM -RA BKN003 OVC025
  FM160400 36008KT 1SM -RA BKN003 OVC025
  FM160600 31010G18KT 1 1/2SM -RA BKN003 OVC025


KDEN 150527Z 1506/1612 22011KT P6SM FEW220
  FM151700 01013KT P6SM FEW220
  FM152000 08009KT P6SM FEW220
  FM160000 16009KT P6SM FEW220
  FM160200 19007KT P6SM FEW220


KDFW 150524Z 1506/1612 VRB02KT P6SM SKC
  FM150900 23004KT P6SM SKC
  FM151800 19009KT P6SM FEW250


KDTW 150523Z 1506/1612 09006KT P6SM SCT028 OVC150
  FM151300 10009KT P6SM BKN020 OVC100
  FM151600 11007KT 3SM -SN BR OVC015
  FM152100 12007KT 4SM -RASN OVC010
  FM160200 19005KT 5SM BR BKN012 OVC022
  FM161000 21010KT P6SM OVC025


KEWR 150525Z 1506/1612 02007KT P6SM BKN250
  FM151400 06008KT P6SM OVC120
  FM151700 06010KT 3SM -SNPL BKN035 OVC080
  FM152100 06012G20KT 2SM -RAPL OVC010
  FM160100 05015G24KT 4SM -RA BR OVC010
  FM160300 04016G28KT 4SM -RA BR OVC010
  FM160900 01015G25KT 4SM -RA BR OVC010


KFLL 150536Z 1506/1612 13010KT P6SM SCT017
  FM151400 19008KT P6SM VCSH SCT025 SCT050
  FM151900 31010KT P6SM VCSH SCT035 BKN060
  FM160200 32006KT P6SM SCT025 BKN150


KIAD 150614Z 1506/1612 06005KT P6SM SCT140 OVC250
  FM151100 06006KT 6SM -FZRASNPL SCT035 OVC100
  FM151500 05010G17KT 1SM -FZRAPL BKN008 OVC025
  FM151900 05011G20KT 1SM -FZRAPL BKN003 OVC025 WS020/07040KT
  FM152200 04012G20KT 2SM -RA BKN003 OVC025
  FM160300 36010G17KT 1SM -RA BKN003 OVC025
  FM160600 31011G19KT 2SM -RASNPL BKN008 OVC025


KIAH 150522Z 1506/1612 31004KT P6SM SKC
  FM151600 28006KT P6SM SKC
  FM160200 19002KT P6SM SKC


KJFK 150525Z 1506/1612 03008KT P6SM BKN250
  FM151400 07010KT P6SM OVC120
  FM151800 07012KT 4SM -SNPL BKN035 OVC080
  FM152100 07013G22KT 2SM -RAPL OVC010
  FM160000 07016G28KT 4SM -RA BR OVC010
  FM160300 07020G32KT 4SM -RA BR OVC010
  FM161000 03016G28KT 4SM -RA BR OVC010


KLAS 150520Z 1506/1612 22005KT P6SM FEW250
  FM151400 VRB04KT P6SM FEW250
  FM160300 25005KT P6SM SCT250


KLAX 150525Z 1506/1612 VRB03KT P6SM SKC
  FM152100 26008KT P6SM SCT250
  FM160300 VRB03KT P6SM SKC


KLGA 150525Z 1506/1612 03007KT P6SM BKN250
  FM151400 07010KT P6SM OVC120
  FM151800 07012KT 3SM -SNPL BKN035 OVC080
  FM152100 07014G22KT 2SM -RAPL OVC010
  FM160000 07018G26KT 4SM -RA BR OVC010
  FM160300 07020G30KT 4SM -RA BR OVC010
  FM160900 03016G25KT 4SM -RA BR OVC010


KMCO 150549Z 1506/1612 17008KT P6SM FEW040 SCT140 SCT250
  FM150900 22007KT P6SM VCSH SCT015 BKN035
  TEMPO 1510/1513 BKN015
  FM151300 28008KT P6SM BKN015 BKN025 OVC040
  FM151700 31011KT P6SM SCT030 SCT060 SCT120
  FM160000 32009KT P6SM SCT150


KMDW 150534Z 1506/1612 09006KT P6SM SCT025 SCT200
  FM151300 11006KT 5SM -SN OVC020
  PROB30 1515/1521 2SM -SN VV010
  FM152100 21007KT P6SM SCT030 SCT200
  FM160500 23012KT P6SM BKN025


KMEM 150530Z 1506/1612 33007KT 6SM BR OVC008
  FM151500 29006KT P6SM SCT008 OVC015
  FM151800 27008KT P6SM BKN050
  FM160100 21004KT P6SM SKC


KMIA 150536Z 1506/1612 11008KT P6SM VCSH SCT017 SCT040
  FM150800 VRB03KT P6SM SCT025 SCT050
  FM151400 20006KT P6SM VCSH SCT025 SCT050
  FM152000 31008KT P6SM VCSH SCT035 BKN060
  FM160100 32006KT P6SM SCT025 BKN150


KMSP 150520Z 1506/1612 18013G19KT P6SM FEW250
  FM151600 19011KT P6SM FEW070 SCT120
  FM152200 24009KT P6SM BKN035 OVC070
  FM160200 30013G22KT 4SM -SHSN OVC015
  TEMPO 1602/1605 2SM -SHSN OVC012
  FM160500 31015G25KT P6SM OVC018


KORD 150534Z 1506/1612 10005KT P6SM FEW025 SCT200
  FM151400 11006KT 5SM -SN OVC020
  PROB30 1516/1521 2SM -SN VV010
  FM152100 21007KT P6SM SCT030 SCT200
  FM160500 23012KT P6SM BKN025


KPDX 150528Z 1506/1606 00000KT 4SM BR OVC025
  FM151100 00000KT 1/4SM FG VV002
  FM151600 VRB03KT 1/2SM FG VV003
  FM151900 VRB03KT P6SM BKN015 OVC025
  FM152100 VRB04KT P6SM SCT250


KPHL 150537Z 1506/1612 04008KT P6SM BKN200
  FM151000 05010KT P6SM OVC100
  FM151300 06010KT P6SM OVC040
  TEMPO 1515/1516 -SNPL OVC025
  FM151600 06010KT 3SM -SNPL OVC015
  FM151900 06014G24KT 2SM RA BR OVC006
  FM160000 06018G30KT 4SM -RA BR OVC006
  FM160700 02014G24KT 6SM -SHRA BR OVC006
  FM160900 33014G24KT P6SM -SHRA BKN006 OVC025


KPHX 150534Z 1506/1612 08006KT P6SM SKC
  FM152200 VRB04KT P6SM SCT250


KPIT 150531Z 1506/1612 07008KT P6SM OVC200
  FM151100 10009KT P6SM -SNPL OVC060
  FM151300 10010KT 3SM -SNPL BKN015
  FM151600 11011KT 2SM -FZRASN BR OVC008
  FM151900 11010KT 1SM -RASN BR OVC007
  FM160000 09008KT 3/4SM -SN BR OVC005
  FM160600 26009KT 2SM -SN BR OVC009


KSAN 150520Z 1506/1612 VRB03KT P6SM FEW250
  FM152100 29008KT P6SM FEW250
  FM160100 VRB04KT P6SM SCT250


KSEA 150532Z 1506/1612 17005KT P6SM OVC009
  TEMPO 1509/1513 OVC007
  FM152000 22005KT P6SM SCT020 BKN050
  FM160500 17006KT P6SM VCSH OVC020
  FM160800 18009KT P6SM -RA OVC015


KSFO 150523Z 1506/1612 VRB04KT 3SM FU HZ FEW005 SCT020
  TEMPO 1506/1508 BKN025
  FM152300 29010KT 4SM FU HZ FEW020 FEW250
  FM160300 VRB04KT 4SM FU HZ FEW020 FEW250


KSLC 150531Z 1506/1612 15006KT P6SM SKC
  FM151900 33006KT P6SM SCT200
  FM160300 15006KT P6SM SCT200


KSTL 150527Z 1506/1612 02006KT 1SM -SN BR OVC015
  TEMPO 1506/1510 1/4SM +SN FG OVC008
  FM151000 34006KT 1/2SM SN FG OVC008
  FM151500 30006KT 4SM -SN BR OVC015
  FM152000 28006KT P6SM BKN030
  FM152300 20006KT P6SM SCT040 BKN120


KTPA 150533Z 1506/1612 31010KT P6SM VCSH SCT008 OVC025
  TEMPO 1506/1509 BKN008
  FM151200 33011KT P6SM BKN015 OVC025
  FM151600 32012G18KT P6SM SCT015 OVC025
  FM152100 32011G17KT P6SM SCT025 BKN080
  FM160100 34008KT P6SM FEW100
  FM160500 35009KT P6SM SKC